Terminal Aerodrome Forecast
Issued by NWS Austin/San Antonio, TX

Home | Current Version | Previous Version | Text Only | Print | Product List | Glossary On
Versions: 1 2 3 4 5 6 7 8 9 10 11 12 13 14 15 16 17 18 19 20 21 22 23 24 25 26 27 28 29
000
FTUS44 KEWX 231400 AAA
TAFDRT
TAF AMD
KDRT 231405Z 2314/2412 08006KT P6SM OVC020
     FM231600 13006KT P6SM BKN050
     FM240600 10005KT P6SM SCT060=

USA.gov is the U.S. government's official web portal to all federal, state and local government web resources and services.